Terminal Aerodrome Forecast
Issued by NWS

Home | Current Version | Previous Version | Text Only | Print | Product List | Glossary On
Versions: 1 2 3 4 5 6 7 8 9 10 11 12 13 14 15 16 17 18 19 20
000
FTUS43 KDLH 302200 AAA
TAFBRD
TAF AMD
KBRD 302222Z 3022/3118 VRB06KT P6SM BKN060
      TEMPO 3022/3102 BKN012
     FM310300 29005KT P6SM SCT025 BKN040
     FM310900 30008KT P6SM SKC=

USA.gov is the U.S. government's official web portal to all federal, state and local government web resources and services.